Time;durP1;ratioP1;P1;durP2;ratioP2;P2;SDS_P1;SDS_P2;PMS_P1;PMS_P2;Temp;Humidity;BMP_temperature;BMP_pressure;BME280_temperature;BME280_humidity;BME280_pressure;Samples;Min_cycle;Max_cycle;Signal;HPM_P1;HPM_P2
2021/12/23 00:00:55;;;;;;;53.80;28.70;;;;;;;;;;5112357;28;20197;-78
2021/12/23 00:03:22;;;;;;;59.03;28.70;;;;;;;;;;5100061;28;20280;-78
2021/12/23 00:05:49;;;;;;;62.53;27.83;;;;;;;;;;5107444;28;20234;-77
2021/12/23 00:08:16;;;;;;;56.60;26.43;;;;;;;;;;5107848;28;20277;-78
2021/12/23 00:10:45;;;;;;;57.30;26.53;;;;;;;;;;5106951;28;20284;-78
2021/12/23 00:13:12;;;;;;;53.03;25.77;;;;;;;;;;5102558;28;20227;-78
2021/12/23 00:16:01;;;;;;;54.53;27.03;;;;;;;;;;5108846;28;20336;-78
2021/12/23 00:18:42;;;;;;;52.87;26.10;;;;;;;;;;5095480;28;20206;-78
2021/12/23 00:23:57;;;;;;;54.90;26.40;;;;;;;;;;5101939;28;20201;-78
2021/12/23 00:26:25;;;;;;;57.43;27.47;;;;;;;;;;5113835;28;20253;-78
2021/12/23 00:28:53;;;;;;;54.17;26.13;;;;;;;;;;5112828;28;20292;-78
2021/12/23 00:31:21;;;;;;;55.87;27.07;;;;;;;;;;5104953;28;20209;-78
2021/12/23 00:33:48;;;;;;;59.27;29.03;;;;;;;;;;5105493;28;20232;-78
2021/12/23 00:36:15;;;;;;;58.23;27.57;;;;;;;;;;5101376;28;20255;-78
2021/12/23 00:38:47;;;;;;;55.77;26.93;;;;;;;;;;5105425;28;20199;-78
2021/12/23 00:41:15;;;;;;;59.83;27.60;;;;;;;;;;5103111;28;20196;-78
2021/12/23 00:43:43;;;;;;;56.30;27.00;;;;;;;;;;5107300;28;20188;-78
2021/12/23 00:46:11;;;;;;;57.50;27.50;;;;;;;;;;5112469;28;20198;-78
2021/12/23 00:48:39;;;;;;;56.77;26.97;;;;;;;;;;5112820;28;20285;-78
2021/12/23 00:51:06;;;;;;;57.43;27.07;;;;;;;;;;5098063;28;20297;-78
2021/12/23 00:53:37;;;;;;;55.90;26.93;;;;;;;;;;5112588;28;20256;-78
2021/12/23 00:56:05;;;;;;;58.97;27.50;;;;;;;;;;5112971;28;20216;-78
2021/12/23 00:58:32;;;;;;;55.13;27.10;;;;;;;;;;5109691;28;20236;-78
2021/12/23 01:01:01;;;;;;;57.27;27.97;;;;;;;;;;5104830;28;20224;-78
2021/12/23 01:03:29;;;;;;;56.63;27.87;;;;;;;;;;5096220;28;20206;-78
2021/12/23 01:05:56;;;;;;;56.30;27.53;;;;;;;;;;5105966;28;20310;-78
2021/12/23 01:08:23;;;;;;;56.73;27.57;;;;;;;;;;5107860;28;20287;-78
2021/12/23 01:10:55;;;;;;;55.07;28.07;;;;;;;;;;5100921;28;20684;-78
2021/12/23 01:13:26;;;;;;;55.00;26.37;;;;;;;;;;5109793;28;20216;-78
2021/12/23 01:16:05;;;;;;;55.87;27.33;;;;;;;;;;5093527;28;20199;-78
2021/12/23 01:18:37;;;;;;;58.77;28.53;;;;;;;;;;5093408;28;20197;-78
2021/12/23 01:21:15;;;;;;;55.07;28.63;;;;;;;;;;5104699;28;20577;-78
2021/12/23 01:23:44;;;;;;;54.47;27.27;;;;;;;;;;5101835;28;20300;-78
2021/12/23 01:26:12;;;;;;;55.17;27.07;;;;;;;;;;5098161;28;20239;-77
2021/12/23 01:28:39;;;;;;;51.10;25.97;;;;;;;;;;5103388;28;20203;-78
2021/12/23 01:31:06;;;;;;;54.13;26.17;;;;;;;;;;5100541;28;20235;-78
2021/12/23 01:33:35;;;;;;;54.77;26.67;;;;;;;;;;5092665;28;20335;-78
2021/12/23 01:36:02;;;;;;;59.93;28.23;;;;;;;;;;5092793;28;20228;-78
2021/12/23 01:38:30;;;;;;;53.03;25.63;;;;;;;;;;5108520;28;20287;-78
2021/12/23 01:40:58;;;;;;;53.63;26.37;;;;;;;;;;5093599;28;20236;-78
2021/12/23 01:43:25;;;;;;;52.13;26.20;;;;;;;;;;5105760;28;20286;-78
2021/12/23 01:45:52;;;;;;;53.57;25.87;;;;;;;;;;5102295;28;20743;-78
2021/12/23 01:48:20;;;;;;;52.90;25.90;;;;;;;;;;5094537;28;20284;-78
2021/12/23 01:50:49;;;;;;;55.10;26.93;;;;;;;;;;5097416;28;20283;-78
2021/12/23 01:53:17;;;;;;;60.43;26.53;;;;;;;;;;5097093;28;20259;-78
2021/12/23 01:55:44;;;;;;;54.73;26.10;;;;;;;;;;5112668;28;20252;-78
2021/12/23 01:58:12;;;;;;;59.93;27.10;;;;;;;;;;5106804;28;21133;-78
2021/12/23 02:00:41;;;;;;;56.27;27.40;;;;;;;;;;5104535;28;20759;-78
2021/12/23 02:03:08;;;;;;;56.47;27.57;;;;;;;;;;5110308;28;20284;-78
2021/12/23 02:05:35;;;;;;;54.90;27.37;;;;;;;;;;5098153;28;20228;-78
2021/12/23 02:08:04;;;;;;;60.17;27.53;;;;;;;;;;5096513;28;20191;-78
2021/12/23 02:10:32;;;;;;;58.87;26.93;;;;;;;;;;5094547;28;20761;-79
2021/12/23 02:12:59;;;;;;;58.60;26.47;;;;;;;;;;5112202;28;20277;-78
2021/12/23 02:15:27;;;;;;;56.27;27.47;;;;;;;;;;5110076;28;20688;-78
2021/12/23 02:17:54;;;;;;;57.40;26.87;;;;;;;;;;5108507;28;20204;-78
2021/12/23 02:20:24;;;;;;;53.83;27.10;;;;;;;;;;5108486;28;20193;-78
2021/12/23 02:22:51;;;;;;;51.67;26.40;;;;;;;;;;5099458;28;20231;-78
2021/12/23 02:25:18;;;;;;;56.80;26.87;;;;;;;;;;5102404;28;20201;-78
2021/12/23 02:27:46;;;;;;;55.17;26.43;;;;;;;;;;5097449;28;20300;-78
2021/12/23 02:30:15;;;;;;;60.23;27.07;;;;;;;;;;5102577;28;20236;-78
2021/12/23 02:32:42;;;;;;;54.00;26.73;;;;;;;;;;5106275;28;20237;-78
2021/12/23 02:35:12;;;;;;;58.43;27.53;;;;;;;;;;5100316;28;20268;-78
2021/12/23 02:37:41;;;;;;;54.37;26.67;;;;;;;;;;5098828;28;20629;-78
2021/12/23 02:40:09;;;;;;;55.53;26.10;;;;;;;;;;5091944;28;20233;-78
2021/12/23 02:42:36;;;;;;;58.03;27.97;;;;;;;;;;5100312;28;20190;-78
2021/12/23 02:45:09;;;;;;;54.17;26.67;;;;;;;;;;5099483;28;20732;-78
2021/12/23 02:47:36;;;;;;;55.40;27.67;;;;;;;;;;5099753;28;20205;-78
2021/12/23 02:50:03;;;;;;;54.83;27.03;;;;;;;;;;5097643;28;20285;-78
2021/12/23 02:52:31;;;;;;;59.83;28.50;;;;;;;;;;5110370;28;20791;-78
2021/12/23 02:55:00;;;;;;;57.10;28.13;;;;;;;;;;5105922;28;20216;-78
2021/12/23 02:57:27;;;;;;;57.50;27.80;;;;;;;;;;5091746;28;20221;-78
2021/12/23 02:59:54;;;;;;;59.90;28.93;;;;;;;;;;5091217;28;20228;-78
2021/12/23 03:02:22;;;;;;;63.53;30.13;;;;;;;;;;5108288;28;20229;-78
2021/12/23 03:04:49;;;;;;;59.17;28.37;;;;;;;;;;5095721;28;20242;-78
2021/12/23 03:07:16;;;;;;;57.77;28.30;;;;;;;;;;5107536;28;20233;-78
2021/12/23 03:09:45;;;;;;;57.17;28.40;;;;;;;;;;5111503;28;20249;-78
2021/12/23 03:12:14;;;;;;;58.10;28.10;;;;;;;;;;5096902;28;20283;-78
2021/12/23 03:14:42;;;;;;;57.77;28.97;;;;;;;;;;5091060;28;20651;-78
2021/12/23 03:17:09;;;;;;;57.20;28.90;;;;;;;;;;5097127;28;20285;-78
2021/12/23 03:19:36;;;;;;;56.87;28.47;;;;;;;;;;5100500;28;20281;-78
2021/12/23 03:22:04;;;;;;;55.63;26.93;;;;;;;;;;5095776;28;20282;-78
2021/12/23 03:24:31;;;;;;;50.93;26.77;;;;;;;;;;5106189;28;20293;-78
2021/12/23 03:27:05;;;;;;;55.13;27.33;;;;;;;;;;5110821;28;20222;-78
2021/12/23 03:29:34;;;;;;;56.60;28.73;;;;;;;;;;5111253;28;20207;-78
2021/12/23 03:32:01;;;;;;;54.87;27.23;;;;;;;;;;5101550;28;20731;-78
2021/12/23 03:34:28;;;;;;;55.13;27.33;;;;;;;;;;5087158;28;20284;-78
2021/12/23 03:36:55;;;;;;;50.77;26.77;;;;;;;;;;5107647;28;20285;-78
2021/12/23 03:39:22;;;;;;;48.13;25.50;;;;;;;;;;5091618;28;20285;-78
2021/12/23 03:41:50;;;;;;;50.90;26.90;;;;;;;;;;5100876;28;20650;-78
2021/12/23 03:44:17;;;;;;;50.70;26.20;;;;;;;;;;5097890;28;20282;-78
2021/12/23 03:46:46;;;;;;;49.33;25.73;;;;;;;;;;5108388;28;20742;-78
2021/12/23 03:49:13;;;;;;;52.23;26.67;;;;;;;;;;5111749;28;20278;-78
2021/12/23 03:51:40;;;;;;;47.50;25.80;;;;;;;;;;5111992;28;20284;-78
2021/12/23 03:54:08;;;;;;;48.47;25.40;;;;;;;;;;5111763;28;20264;-78
2021/12/23 03:56:35;;;;;;;49.67;26.17;;;;;;;;;;5109173;28;20256;-78
2021/12/23 03:59:02;;;;;;;50.20;24.93;;;;;;;;;;5110520;28;20284;-78
2021/12/23 04:01:30;;;;;;;49.73;26.80;;;;;;;;;;5110785;28;20235;-78
2021/12/23 04:03:58;;;;;;;51.67;26.50;;;;;;;;;;5109947;28;20289;-78
2021/12/23 04:06:26;;;;;;;49.77;25.67;;;;;;;;;;5091751;28;20229;-78
2021/12/23 04:08:54;;;;;;;49.23;26.20;;;;;;;;;;5091446;28;20605;-78
2021/12/23 04:11:21;;;;;;;47.83;24.97;;;;;;;;;;5091909;28;20289;-78
2021/12/23 04:13:49;;;;;;;47.73;25.70;;;;;;;;;;5094988;28;20312;-78
2021/12/23 04:16:16;;;;;;;51.57;26.97;;;;;;;;;;5097467;28;20284;-78
2021/12/23 04:18:45;;;;;;;48.17;25.73;;;;;;;;;;5097573;28;20278;-78
2021/12/23 04:21:15;;;;;;;50.03;26.50;;;;;;;;;;5094077;28;20201;-78
2021/12/23 04:23:42;;;;;;;48.40;25.10;;;;;;;;;;5094312;28;20231;-78
2021/12/23 04:26:09;;;;;;;46.57;25.20;;;;;;;;;;5094923;28;20605;-78
2021/12/23 04:28:45;;;;;;;47.87;25.53;;;;;;;;;;5094377;28;20734;-78
2021/12/23 04:31:13;;;;;;;53.13;25.60;;;;;;;;;;5095183;28;20208;-78
2021/12/23 04:33:40;;;;;;;48.13;25.20;;;;;;;;;;5094346;28;20238;-78
2021/12/23 04:36:08;;;;;;;44.70;24.73;;;;;;;;;;5100641;28;20683;-78
2021/12/23 04:38:37;;;;;;;48.40;25.40;;;;;;;;;;5109949;28;20197;-78
2021/12/23 04:41:04;;;;;;;46.67;24.57;;;;;;;;;;5094205;28;20280;-78
2021/12/23 04:43:32;;;;;;;47.73;24.70;;;;;;;;;;5101703;28;20199;-78
2021/12/23 04:45:59;;;;;;;46.67;24.47;;;;;;;;;;5113473;28;20744;-78
2021/12/23 04:48:26;;;;;;;44.40;24.93;;;;;;;;;;5111132;28;20288;-78
2021/12/23 04:50:54;;;;;;;44.33;24.30;;;;;;;;;;5099925;28;20232;-78
2021/12/23 04:53:21;;;;;;;41.13;23.90;;;;;;;;;;5113493;28;20291;-78
2021/12/23 04:55:50;;;;;;;46.83;24.37;;;;;;;;;;5113034;28;20257;-78
2021/12/23 04:58:17;;;;;;;45.13;24.93;;;;;;;;;;5096997;28;20233;-78
2021/12/23 05:00:47;;;;;;;47.90;25.87;;;;;;;;;;5110325;28;20279;-78
2021/12/23 05:03:15;;;;;;;45.17;24.67;;;;;;;;;;5105438;28;20740;-78
2021/12/23 05:05:45;;;;;;;44.43;24.57;;;;;;;;;;5102203;28;20208;-78
2021/12/23 05:08:13;;;;;;;47.47;25.20;;;;;;;;;;5104380;28;20218;-78
2021/12/23 05:10:40;;;;;;;43.70;24.23;;;;;;;;;;5104183;28;20290;-78
2021/12/23 05:13:09;;;;;;;44.93;25.20;;;;;;;;;;5099576;28;20228;-78
2021/12/23 05:15:36;;;;;;;45.87;24.93;;;;;;;;;;5103914;28;20257;-78
2021/12/23 05:18:04;;;;;;;44.77;24.67;;;;;;;;;;5106568;28;20724;-78
2021/12/23 05:20:31;;;;;;;44.47;24.73;;;;;;;;;;5112578;28;20673;-78
2021/12/23 05:22:59;;;;;;;46.93;25.37;;;;;;;;;;5107733;28;20232;-78
2021/12/23 05:25:26;;;;;;;42.53;24.67;;;;;;;;;;5112430;28;20656;-78
2021/12/23 05:27:55;;;;;;;44.13;24.47;;;;;;;;;;5101773;28;20261;-78
2021/12/23 05:30:25;;;;;;;44.53;24.73;;;;;;;;;;5108762;28;20232;-78
2021/12/23 05:32:53;;;;;;;44.80;25.50;;;;;;;;;;5093573;28;20201;-78
2021/12/23 05:35:20;;;;;;;46.50;25.53;;;;;;;;;;5099677;28;20319;-78
2021/12/23 05:37:48;;;;;;;48.43;25.83;;;;;;;;;;5107889;28;20747;-78
2021/12/23 05:40:16;;;;;;;49.80;25.50;;;;;;;;;;5113557;28;20244;-78
2021/12/23 05:42:44;;;;;;;52.70;26.63;;;;;;;;;;5103393;28;20243;-78
2021/12/23 05:45:11;;;;;;;56.53;26.97;;;;;;;;;;5093098;28;20300;-78
2021/12/23 05:47:40;;;;;;;55.27;26.30;;;;;;;;;;5093265;28;20301;-78
2021/12/23 05:50:07;;;;;;;59.70;26.40;;;;;;;;;;5096663;28;20284;-78
2021/12/23 05:52:35;;;;;;;60.53;28.20;;;;;;;;;;5104345;28;20207;-78
2021/12/23 05:55:03;;;;;;;58.27;28.27;;;;;;;;;;5096036;28;20315;-78
2021/12/23 05:57:30;;;;;;;59.00;28.57;;;;;;;;;;5106440;28;20809;-78
2021/12/23 05:59:57;;;;;;;65.50;29.43;;;;;;;;;;5101821;28;20221;-78
2021/12/23 06:02:25;;;;;;;64.63;28.80;;;;;;;;;;5107568;28;20239;-78
2021/12/23 06:04:53;;;;;;;68.97;29.83;;;;;;;;;;5108620;28;20383;-78
2021/12/23 06:07:21;;;;;;;71.77;29.40;;;;;;;;;;5108613;28;20248;-78
2021/12/23 06:09:49;;;;;;;74.87;30.63;;;;;;;;;;5102622;28;20220;-78
2021/12/23 06:12:16;;;;;;;77.37;31.00;;;;;;;;;;5095425;28;20291;-78
2021/12/23 06:14:43;;;;;;;74.37;30.20;;;;;;;;;;5101621;28;20316;-77
2021/12/23 06:17:10;;;;;;;74.97;31.27;;;;;;;;;;5101044;28;20229;-78
2021/12/23 06:19:38;;;;;;;82.63;30.63;;;;;;;;;;5106083;28;20549;-78
2021/12/23 06:22:06;;;;;;;78.00;29.63;;;;;;;;;;5100485;28;20327;-80
2021/12/23 06:24:34;;;;;;;71.43;29.43;;;;;;;;;;5110691;28;20732;-78
2021/12/23 06:27:01;;;;;;;74.97;30.60;;;;;;;;;;5111635;28;20324;-78
2021/12/23 06:29:28;;;;;;;69.80;29.57;;;;;;;;;;5111851;28;20276;-78
2021/12/23 06:31:55;;;;;;;78.53;33.17;;;;;;;;;;5109660;28;20287;-78
2021/12/23 06:34:22;;;;;;;76.17;31.87;;;;;;;;;;5103541;28;20320;-78
2021/12/23 06:36:49;;;;;;;73.70;32.20;;;;;;;;;;5109482;28;20288;-77
2021/12/23 06:39:18;;;;;;;82.90;32.60;;;;;;;;;;5095461;28;20284;-77
2021/12/23 06:41:45;;;;;;;73.37;30.73;;;;;;;;;;5112011;28;20284;-77
2021/12/23 06:44:12;;;;;;;65.70;29.83;;;;;;;;;;5099892;28;20233;-77
2021/12/23 06:46:42;;;;;;;72.47;34.40;;;;;;;;;;5112130;28;20240;-78
2021/12/23 06:49:09;;;;;;;68.03;30.50;;;;;;;;;;5111689;28;20711;-78
2021/12/23 06:51:36;;;;;;;70.03;30.87;;;;;;;;;;5100847;28;20285;-78
2021/12/23 06:54:04;;;;;;;70.37;30.73;;;;;;;;;;5092083;28;20708;-77
2021/12/23 06:56:32;;;;;;;63.23;29.70;;;;;;;;;;5099132;28;20260;-77
2021/12/23 06:58:59;;;;;;;67.77;30.53;;;;;;;;;;5105323;28;20228;-77
2021/12/23 07:01:27;;;;;;;61.80;31.20;;;;;;;;;;5096408;28;20293;-77
2021/12/23 07:06:36;;;;;;;57.03;27.90;;;;;;;;;;5106441;27;20201;-77
2021/12/23 07:09:05;;;;;;;54.03;27.00;;;;;;;;;;5088886;28;20240;-77
2021/12/23 07:11:34;;;;;;;57.80;27.40;;;;;;;;;;5090114;28;20296;-77
2021/12/23 07:14:01;;;;;;;51.93;26.50;;;;;;;;;;5090722;28;20288;-77
2021/12/23 07:16:28;;;;;;;54.67;27.17;;;;;;;;;;5090176;28;20303;-77
2021/12/23 07:18:55;;;;;;;47.97;27.13;;;;;;;;;;5089899;28;20203;-77
2021/12/23 07:21:23;;;;;;;53.80;26.83;;;;;;;;;;5090664;28;20281;-77
2021/12/23 07:23:50;;;;;;;53.37;27.20;;;;;;;;;;5101489;28;20231;-77
2021/12/23 07:26:17;;;;;;;54.70;26.93;;;;;;;;;;5112030;28;20546;-77
2021/12/23 07:28:46;;;;;;;49.13;25.80;;;;;;;;;;5100397;28;20201;-77
2021/12/23 07:31:13;;;;;;;52.83;27.30;;;;;;;;;;5111454;28;20280;-78
2021/12/23 07:33:41;;;;;;;52.43;25.97;;;;;;;;;;5095517;28;20261;-80
2021/12/23 07:36:08;;;;;;;51.37;26.83;;;;;;;;;;5092550;28;20347;-81
2021/12/23 07:38:35;;;;;;;48.93;26.00;;;;;;;;;;5091336;28;20593;-80
2021/12/23 07:41:03;;;;;;;44.60;26.20;;;;;;;;;;5091549;28;20199;-81
2021/12/23 07:43:56;;;;;;;50.77;26.37;;;;;;;;;;5090697;28;20244;-80
2021/12/23 07:46:25;;;;;;;51.00;25.60;;;;;;;;;;5093596;28;20202;-80
2021/12/23 07:48:52;;;;;;;49.60;26.57;;;;;;;;;;5094710;28;20233;-80
2021/12/23 07:51:19;;;;;;;48.43;26.73;;;;;;;;;;5094635;28;20293;-80
2021/12/23 07:53:46;;;;;;;54.40;28.30;;;;;;;;;;5094630;28;20240;-80
2021/12/23 07:56:13;;;;;;;52.07;26.57;;;;;;;;;;5110362;28;20404;-81
2021/12/23 07:58:41;;;;;;;52.30;26.40;;;;;;;;;;5094655;28;20621;-80
2021/12/23 08:01:08;;;;;;;52.43;25.93;;;;;;;;;;5094323;28;20510;-81
2021/12/23 08:03:37;;;;;;;47.50;25.67;;;;;;;;;;5094365;28;20298;-80
2021/12/23 08:06:04;;;;;;;46.97;25.50;;;;;;;;;;5094323;28;20218;-81
2021/12/23 08:08:31;;;;;;;49.87;26.03;;;;;;;;;;5096316;28;20211;-80
2021/12/23 08:10:59;;;;;;;47.10;25.00;;;;;;;;;;5114226;28;20455;-81
2021/12/23 08:13:26;;;;;;;46.33;25.27;;;;;;;;;;5114830;28;20201;-81
2021/12/23 08:15:53;;;;;;;50.17;25.63;;;;;;;;;;5114700;28;20713;-81
2021/12/23 08:18:20;;;;;;;43.50;24.57;;;;;;;;;;5114140;28;20236;-80
2021/12/23 08:20:49;;;;;;;43.70;25.50;;;;;;;;;;5115039;28;20290;-80
2021/12/23 08:23:16;;;;;;;47.73;26.03;;;;;;;;;;5103611;28;20206;-81
2021/12/23 08:25:44;;;;;;;47.73;25.53;;;;;;;;;;5104661;28;20281;-80
2021/12/23 08:28:12;;;;;;;47.03;25.43;;;;;;;;;;5114247;28;20607;-80
2021/12/23 08:30:40;;;;;;;43.97;24.83;;;;;;;;;;5114607;28;20288;-80
2021/12/23 08:33:08;;;;;;;46.50;28.27;;;;;;;;;;5113919;28;20198;-80
2021/12/23 08:35:36;;;;;;;42.07;25.30;;;;;;;;;;5097002;28;20730;-80
2021/12/23 08:38:05;;;;;;;39.43;24.13;;;;;;;;;;5093765;28;20287;-80
2021/12/23 08:40:33;;;;;;;39.90;23.13;;;;;;;;;;5094103;28;20281;-80
2021/12/23 08:43:02;;;;;;;40.53;22.93;;;;;;;;;;5093879;28;20753;-80
2021/12/23 08:45:30;;;;;;;47.13;27.27;;;;;;;;;;5093521;28;20571;-80
2021/12/23 08:47:58;;;;;;;58.33;34.17;;;;;;;;;;5093183;28;20238;-80
2021/12/23 08:50:26;;;;;;;49.43;27.70;;;;;;;;;;5093932;28;20277;-80
2021/12/23 08:52:54;;;;;;;51.67;29.53;;;;;;;;;;5093726;28;20226;-80
2021/12/23 08:55:23;;;;;;;51.13;28.17;;;;;;;;;;5094760;28;20305;-80
2021/12/23 08:57:50;;;;;;;47.83;28.03;;;;;;;;;;5113228;28;20700;-80
2021/12/23 09:00:18;;;;;;;43.10;25.20;;;;;;;;;;5113943;28;20206;-80
2021/12/23 09:02:48;;;;;;;42.47;24.97;;;;;;;;;;5110973;28;20284;-80
2021/12/23 09:05:17;;;;;;;42.57;25.27;;;;;;;;;;5093234;28;20191;-80
2021/12/23 09:07:44;;;;;;;44.47;24.97;;;;;;;;;;5098171;28;20203;-80
2021/12/23 09:10:12;;;;;;;39.90;23.90;;;;;;;;;;5105827;28;20289;-81
2021/12/23 09:12:40;;;;;;;33.53;21.23;;;;;;;;;;5093488;28;20222;-81
2021/12/23 09:15:08;;;;;;;34.50;22.30;;;;;;;;;;5092520;28;20294;-80
2021/12/23 09:17:35;;;;;;;30.63;20.73;;;;;;;;;;5093342;28;20292;-81
2021/12/23 09:20:03;;;;;;;31.17;20.30;;;;;;;;;;5093422;28;20269;-80
2021/12/23 09:22:30;;;;;;;29.07;19.50;;;;;;;;;;5092853;28;20231;-81
2021/12/23 09:25:02;;;;;;;29.33;20.00;;;;;;;;;;5093066;28;20359;-80
2021/12/23 09:27:36;;;;;;;29.47;19.50;;;;;;;;;;5092613;28;20263;-81
2021/12/23 09:33:00;;;;;;;24.53;17.20;;;;;;;;;;5113407;28;20673;-81
2021/12/23 09:35:30;;;;;;;27.53;18.70;;;;;;;;;;5097880;28;20234;-80
2021/12/23 09:37:58;;;;;;;25.73;17.30;;;;;;;;;;5092900;28;20199;-81
2021/12/23 09:40:26;;;;;;;26.73;17.67;;;;;;;;;;5092735;28;20228;-81
2021/12/23 09:42:53;;;;;;;25.30;17.63;;;;;;;;;;5092810;28;20198;-80
2021/12/23 09:45:23;;;;;;;29.53;18.33;;;;;;;;;;5092166;28;20668;-81
2021/12/23 09:47:51;;;;;;;29.83;18.83;;;;;;;;;;5092239;28;20196;-80
2021/12/23 09:50:19;;;;;;;27.03;18.27;;;;;;;;;;5092707;28;20301;-81
2021/12/23 09:52:47;;;;;;;28.67;19.13;;;;;;;;;;5092704;28;20250;-81
2021/12/23 09:55:16;;;;;;;29.03;18.17;;;;;;;;;;5091914;28;20740;-81
2021/12/23 09:57:45;;;;;;;29.70;19.17;;;;;;;;;;5092322;28;20283;-81
2021/12/23 10:00:12;;;;;;;29.73;19.30;;;;;;;;;;5092200;28;20293;-81
2021/12/23 10:02:42;;;;;;;28.63;19.40;;;;;;;;;;5092417;28;20285;-80
2021/12/23 10:05:10;;;;;;;29.80;19.27;;;;;;;;;;5092333;28;20655;-81
2021/12/23 10:07:39;;;;;;;28.93;19.50;;;;;;;;;;5091737;28;20240;-81
2021/12/23 10:10:11;;;;;;;28.80;19.53;;;;;;;;;;5092131;28;20238;-80
2021/12/23 10:32:26;;;;;;;32.83;19.63;;;;;;;;;;5048715;28;20195;-81
2021/12/23 10:38:03;;;;;;;34.67;20.70;;;;;;;;;;4970705;28;20209;-81
2021/12/23 10:40:32;;;;;;;31.77;20.47;;;;;;;;;;4952119;28;20274;-81
2021/12/23 10:42:59;;;;;;;29.90;20.03;;;;;;;;;;4951062;29;20293;-81
2021/12/23 10:45:34;;;;;;;32.70;21.10;;;;;;;;;;4951355;29;20234;-81
2021/12/23 10:48:06;;;;;;;28.70;19.40;;;;;;;;;;4932057;29;20239;-81
2021/12/23 10:50:40;;;;;;;30.27;20.23;;;;;;;;;;4932193;29;20204;-81
2021/12/23 10:53:11;;;;;;;31.43;19.47;;;;;;;;;;4932436;29;20210;-81
2021/12/23 10:58:24;;;;;;;26.00;17.90;;;;;;;;;;4947335;29;20716;-81
2021/12/23 11:00:53;;;;;;;27.43;18.37;;;;;;;;;;4950766;29;20350;-81
2021/12/23 11:03:28;;;;;;;27.27;17.60;;;;;;;;;;4952016;28;20206;-82
2021/12/23 11:06:04;;;;;;;26.30;17.70;;;;;;;;;;5019093;28;21340;-82
2021/12/23 11:08:40;;;;;;;25.43;17.57;;;;;;;;;;5029637;28;20209;-81
2021/12/23 11:28:25;;;;;;;23.43;16.33;;;;;;;;;;5103482;28;20677;-81
2021/12/23 11:32:06;;;;;;;24.40;16.30;;;;;;;;;;5115010;28;20224;-81
2021/12/23 11:37:05;;;;;;;21.97;15.87;;;;;;;;;;5095430;28;20237;-81
2021/12/23 11:39:47;;;;;;;24.70;15.93;;;;;;;;;;5103208;28;20238;-81
2021/12/23 11:42:22;;;;;;;25.90;17.57;;;;;;;;;;5115114;28;20254;-81
2021/12/23 11:44:50;;;;;;;23.87;17.40;;;;;;;;;;5115419;28;20211;-81
2021/12/23 11:47:17;;;;;;;27.70;17.50;;;;;;;;;;5096735;28;20232;-82
2021/12/23 11:49:46;;;;;;;23.90;16.80;;;;;;;;;;5096751;28;20230;-82
2021/12/23 11:52:16;;;;;;;23.57;16.80;;;;;;;;;;5095532;28;20203;-82
2021/12/23 11:54:46;;;;;;;25.43;16.87;;;;;;;;;;5095640;28;20194;-82
2021/12/23 11:57:15;;;;;;;23.33;17.10;;;;;;;;;;5111172;28;20312;-82
2021/12/23 11:59:44;;;;;;;22.80;15.53;;;;;;;;;;5110364;28;20234;-82
2021/12/23 12:02:14;;;;;;;24.00;16.90;;;;;;;;;;5094923;28;20199;-81
2021/12/23 12:04:42;;;;;;;23.90;16.20;;;;;;;;;;5095051;28;20201;-81
2021/12/23 12:07:16;;;;;;;23.03;17.40;;;;;;;;;;5109185;28;20281;-81
2021/12/23 12:10:00;;;;;;;20.70;16.03;;;;;;;;;;5114375;28;20289;-81
2021/12/23 12:12:27;;;;;;;24.07;17.07;;;;;;;;;;5114954;28;20202;-81
2021/12/23 12:14:55;;;;;;;23.60;17.30;;;;;;;;;;5115013;28;20288;-81
2021/12/23 12:17:34;;;;;;;24.20;16.77;;;;;;;;;;5114814;28;20226;-81
2021/12/23 12:20:02;;;;;;;25.60;17.13;;;;;;;;;;5114515;28;20549;-81
2021/12/23 12:23:02;;;;;;;26.47;17.23;;;;;;;;;;5114710;28;20681;-81
2021/12/23 12:25:56;;;;;;;25.37;17.70;;;;;;;;;;5071584;28;20282;-81
2021/12/23 12:28:24;;;;;;;24.97;16.90;;;;;;;;;;5071884;28;20919;-81
2021/12/23 12:30:53;;;;;;;26.27;17.37;;;;;;;;;;5071317;28;20749;-81
2021/12/23 12:33:38;;;;;;;23.13;16.17;;;;;;;;;;5070172;28;20764;-81
2021/12/23 12:36:07;;;;;;;26.80;17.50;;;;;;;;;;5051420;28;20266;-81
2021/12/23 12:38:36;;;;;;;29.93;19.30;;;;;;;;;;5069001;28;20278;-82
2021/12/23 12:41:05;;;;;;;26.50;17.30;;;;;;;;;;5067128;28;20285;-82
2021/12/23 12:43:49;;;;;;;22.63;17.13;;;;;;;;;;5071962;28;20678;-81
2021/12/23 12:46:25;;;;;;;25.93;17.70;;;;;;;;;;5071046;28;20686;-81
2021/12/23 12:49:09;;;;;;;27.53;18.10;;;;;;;;;;5071138;28;20232;-81
2021/12/23 12:51:37;;;;;;;22.47;16.90;;;;;;;;;;5057592;28;20211;-81
2021/12/23 12:54:06;;;;;;;25.37;17.87;;;;;;;;;;5050919;28;20245;-81
2021/12/23 12:56:36;;;;;;;27.60;17.97;;;;;;;;;;5088364;28;20278;-81
2021/12/23 12:59:08;;;;;;;25.50;17.63;;;;;;;;;;5113433;28;20281;-81
2021/12/23 13:01:37;;;;;;;26.47;18.40;;;;;;;;;;5113787;28;20281;-81
2021/12/23 13:04:06;;;;;;;25.47;17.83;;;;;;;;;;5103385;28;20630;-81
2021/12/23 13:06:37;;;;;;;27.77;18.10;;;;;;;;;;5093286;28;20204;-81
2021/12/23 13:09:05;;;;;;;24.53;17.43;;;;;;;;;;5108521;28;20204;-81
2021/12/23 13:11:37;;;;;;;24.10;18.57;;;;;;;;;;5113316;28;20193;-81
2021/12/23 13:14:11;;;;;;;27.20;17.83;;;;;;;;;;5113699;28;20635;-81
2021/12/23 13:16:51;;;;;;;26.43;17.67;;;;;;;;;;5113315;28;20282;-81
2021/12/23 13:19:21;;;;;;;28.33;18.73;;;;;;;;;;5112926;28;20692;-81
2021/12/23 13:21:49;;;;;;;30.53;19.30;;;;;;;;;;5113621;28;20256;-81
2021/12/23 13:24:17;;;;;;;27.87;18.17;;;;;;;;;;5113480;28;20263;-81
2021/12/23 13:26:46;;;;;;;25.20;18.00;;;;;;;;;;5113570;28;20672;-81
2021/12/23 13:29:13;;;;;;;26.77;19.07;;;;;;;;;;5113368;28;20303;-81
2021/12/23 13:31:41;;;;;;;25.87;18.93;;;;;;;;;;5113440;28;20204;-81
2021/12/23 13:34:11;;;;;;;28.37;18.53;;;;;;;;;;5108821;28;20280;-82
2021/12/23 13:36:40;;;;;;;28.33;18.33;;;;;;;;;;5092472;28;20226;-81
2021/12/23 13:39:08;;;;;;;27.40;17.97;;;;;;;;;;5093203;28;20210;-81
2021/12/23 13:41:36;;;;;;;26.90;19.13;;;;;;;;;;5092551;28;20233;-82
2021/12/23 13:44:18;;;;;;;26.33;18.53;;;;;;;;;;5092965;28;20238;-81
2021/12/23 13:46:47;;;;;;;27.10;19.07;;;;;;;;;;5092899;28;20288;-81
2021/12/23 13:49:14;;;;;;;26.23;18.47;;;;;;;;;;5092652;28;20285;-81
2021/12/23 13:51:47;;;;;;;25.63;18.50;;;;;;;;;;5092301;28;20815;-81
2021/12/23 13:54:16;;;;;;;29.90;19.33;;;;;;;;;;5092584;28;20202;-80
2021/12/23 13:56:44;;;;;;;28.80;19.97;;;;;;;;;;5094396;28;20322;-81
2021/12/23 13:59:17;;;;;;;26.47;19.47;;;;;;;;;;5112657;28;20234;-80
2021/12/23 14:01:55;;;;;;;34.23;20.97;;;;;;;;;;5112795;28;20288;-80
2021/12/23 14:04:29;;;;;;;29.90;21.13;;;;;;;;;;5112642;28;20282;-81
2021/12/23 14:06:57;;;;;;;29.93;20.10;;;;;;;;;;5107455;28;20293;-81
2021/12/23 14:09:30;;;;;;;28.10;20.07;;;;;;;;;;5112684;28;20215;-81
2021/12/23 14:11:57;;;;;;;28.40;20.63;;;;;;;;;;5111505;28;20295;-80
2021/12/23 14:14:26;;;;;;;28.37;20.30;;;;;;;;;;5091992;28;20330;-80
2021/12/23 14:16:53;;;;;;;29.17;20.60;;;;;;;;;;5092680;28;20265;-80
2021/12/23 14:19:25;;;;;;;32.57;21.40;;;;;;;;;;5092169;28;20231;-80
2021/12/23 14:24:38;;;;;;;31.20;20.00;;;;;;;;;;5091931;28;20197;-81
2021/12/23 14:27:06;;;;;;;26.57;18.13;;;;;;;;;;5092130;28;20285;-81
2021/12/23 14:29:37;;;;;;;26.30;18.27;;;;;;;;;;5091849;28;20301;-81
2021/12/23 14:32:05;;;;;;;27.17;18.50;;;;;;;;;;5108149;28;20204;-80
2021/12/23 14:34:35;;;;;;;26.13;18.43;;;;;;;;;;5104224;28;20748;-81
2021/12/23 14:37:02;;;;;;;28.10;18.33;;;;;;;;;;5091875;28;20309;-81
2021/12/23 14:39:30;;;;;;;29.27;18.13;;;;;;;;;;5091928;28;20237;-81
2021/12/23 14:41:59;;;;;;;23.57;17.07;;;;;;;;;;5091680;28;20194;-81
2021/12/23 14:44:27;;;;;;;27.30;18.23;;;;;;;;;;5091630;28;20229;-81
2021/12/23 14:47:03;;;;;;;25.43;17.73;;;;;;;;;;5091621;28;20206;-81
2021/12/23 14:52:17;;;;;;;25.43;17.67;;;;;;;;;;5089515;28;20316;-81
2021/12/23 14:54:48;;;;;;;29.63;19.10;;;;;;;;;;5092380;28;20237;-81
2021/12/23 14:57:17;;;;;;;31.33;18.73;;;;;;;;;;5111720;28;20261;-81
2021/12/23 14:59:49;;;;;;;30.50;18.47;;;;;;;;;;5111030;28;20739;-80
2021/12/23 15:02:19;;;;;;;29.07;18.07;;;;;;;;;;5111621;28;20631;-81
2021/12/23 15:04:57;;;;;;;28.23;18.80;;;;;;;;;;5110827;28;20223;-81
2021/12/23 15:07:24;;;;;;;29.67;20.40;;;;;;;;;;5111618;28;20193;-81
2021/12/23 15:09:57;;;;;;;32.70;18.93;;;;;;;;;;5098417;28;21564;-81
2021/12/23 15:12:25;;;;;;;28.03;19.10;;;;;;;;;;5091706;28;20376;-81
2021/12/23 15:14:53;;;;;;;27.50;18.93;;;;;;;;;;5090909;28;20271;-82
2021/12/23 15:17:26;;;;;;;30.17;19.10;;;;;;;;;;5091757;28;20313;-80
2021/12/23 15:19:55;;;;;;;27.53;18.77;;;;;;;;;;5107468;28;20208;-80
2021/12/23 15:22:23;;;;;;;24.73;19.00;;;;;;;;;;5105430;28;20258;-81
2021/12/23 15:25:01;;;;;;;28.53;19.40;;;;;;;;;;5091683;28;20289;-80
2021/12/23 15:27:29;;;;;;;27.57;19.30;;;;;;;;;;5091308;28;20220;-80